createdAt,value
2017-03-12T00:01:00.850Z,60.88
2017-03-12T00:01:49.777Z,60.09
2017-03-12T00:02:46.337Z,59.87
2017-03-12T00:03:51.873Z,59.76
2017-03-12T00:04:54.371Z,59.70
2017-03-12T00:05:54.860Z,59.65
2017-03-12T00:06:58.671Z,59.64
2017-03-12T00:07:48.672Z,59.97
2017-03-12T00:08:47.367Z,60.56
2017-03-12T00:09:59.197Z,60.74
2017-03-12T00:10:50.175Z,60.86
2017-03-12T00:11:46.058Z,60.91
2017-03-12T00:12:50.840Z,60.95
2017-03-12T00:13:51.481Z,60.98
2017-03-12T00:14:50.085Z,61.00
2017-03-12T00:15:48.663Z,61.01
2017-03-12T00:16:49.193Z,61.02
2017-03-12T00:17:45.053Z,61.01
2017-03-12T00:18:44.840Z,61.02
2017-03-12T00:19:46.863Z,61.03
2017-03-12T00:20:46.765Z,61.04
2017-03-12T00:21:46.584Z,61.05
2017-03-12T00:22:46.026Z,61.05
2017-03-12T00:23:40.293Z,61.04
2017-03-12T00:24:50.792Z,61.04
2017-03-12T00:25:51.410Z,61.04
2017-03-12T00:26:49.361Z,61.06
2017-03-12T00:27:47.766Z,61.06
2017-03-12T00:28:50.486Z,61.05
2017-03-12T00:29:50.190Z,61.06
2017-03-12T00:30:46.101Z,61.06
2017-03-12T00:31:52.942Z,61.06
2017-03-12T00:32:50.397Z,61.07
2017-03-12T00:33:44.974Z,61.07
2017-03-12T00:34:51.362Z,61.08
2017-03-12T00:35:46.320Z,61.07
2017-03-12T00:37:00.692Z,61.07
2017-03-12T00:37:49.795Z,61.08
2017-03-12T00:39:02.753Z,61.07
2017-03-12T00:39:47.298Z,61.09
2017-03-12T00:40:50.135Z,61.07
2017-03-12T00:41:54.821Z,61.08
2017-03-12T00:42:46.651Z,61.08
2017-03-12T00:43:50.681Z,61.08
2017-03-12T00:45:14.205Z,61.09
2017-03-12T00:45:57.995Z,61.10
2017-03-12T00:46:58.946Z,61.10
2017-03-12T00:47:59.254Z,61.11
2017-03-12T00:48:40.741Z,61.11
2017-03-12T00:49:49.968Z,61.11
2017-03-12T00:50:56.083Z,61.12
2017-03-12T00:51:45.988Z,61.11
2017-03-12T00:52:45.836Z,61.12
2017-03-12T00:53:55.956Z,61.14
2017-03-12T00:54:50.477Z,61.12
2017-03-12T00:55:46.503Z,61.13
2017-03-12T00:56:46.478Z,61.14
2017-03-12T00:57:51.052Z,61.16
2017-03-12T00:58:59.023Z,61.14
2017-03-12T00:59:45.717Z,61.15
2017-03-12T01:00:54.054Z,61.15
2017-03-12T01:01:55.251Z,61.13
2017-03-12T01:02:53.402Z,61.15
2017-03-12T01:03:55.562Z,61.14
2017-03-12T01:04:46.398Z,61.14
2017-03-12T01:05:55.832Z,61.14
2017-03-12T01:06:51.392Z,61.14
2017-03-12T01:08:00.740Z,61.16
2017-03-12T01:08:55.303Z,61.17
2017-03-12T01:09:50.868Z,61.18
2017-03-12T01:10:56.053Z,61.20
2017-03-12T01:11:55.112Z,61.19
2017-03-12T01:12:55.749Z,61.21
2017-03-12T01:13:46.745Z,61.22
2017-03-12T01:14:59.039Z,61.09
2017-03-12T01:15:40.239Z,61.23
2017-03-12T01:16:40.810Z,61.24
2017-03-12T01:17:55.691Z,61.26
2017-03-12T01:19:00.426Z,61.25
2017-03-12T01:19:58.396Z,61.25
2017-03-12T01:20:55.129Z,61.26
2017-03-12T01:21:55.432Z,61.28
2017-03-12T01:23:03.011Z,61.30
2017-03-12T01:23:53.922Z,61.31
2017-03-12T01:24:58.754Z,61.31
2017-03-12T01:25:54.459Z,61.32
2017-03-12T01:26:49.675Z,61.31
2017-03-12T01:27:59.222Z,61.25
2017-03-12T01:28:58.600Z,60.35
2017-03-12T01:29:50.442Z,60.29
2017-03-12T01:30:59.022Z,60.98
2017-03-12T01:31:54.892Z,61.13
2017-03-12T01:32:59.272Z,61.21
2017-03-12T01:34:20.914Z,61.24
2017-03-12T01:34:55.041Z,61.28
2017-03-12T01:35:47.471Z,61.28
2017-03-12T01:36:55.318Z,61.29
2017-03-12T01:38:03.943Z,61.29
2017-03-12T01:38:58.799Z,61.29
2017-03-12T01:39:51.516Z,61.29
2017-03-12T01:40:45.773Z,61.29
2017-03-12T01:41:59.565Z,61.29
2017-03-12T01:42:56.234Z,61.29
2017-03-12T01:43:55.200Z,61.30
2017-03-12T01:44:59.918Z,61.30
2017-03-12T01:45:54.536Z,61.30
2017-03-12T01:47:04.405Z,61.30
2017-03-12T01:47:59.278Z,61.31
2017-03-12T01:48:48.991Z,61.31
2017-03-12T01:50:03.894Z,61.31
2017-03-12T01:50:59.064Z,61.32
2017-03-12T01:51:48.053Z,61.32
2017-03-12T01:52:59.723Z,61.30
2017-03-12T01:53:51.799Z,61.32
2017-03-12T01:54:46.409Z,61.31
2017-03-12T01:56:01.828Z,61.31
2017-03-12T01:56:56.011Z,61.32
2017-03-12T01:57:59.356Z,61.32
2017-03-12T01:58:54.240Z,61.31
2017-03-12T01:59:44.555Z,61.32
2017-03-12T02:00:45.748Z,61.33
2017-03-12T02:02:19.924Z,61.31
2017-03-12T02:03:14.276Z,61.33
2017-03-12T02:03:47.728Z,61.33
2017-03-12T02:04:51.859Z,61.33
2017-03-12T02:05:55.025Z,61.33
2017-03-12T02:07:06.761Z,61.33
2017-03-12T02:08:02.754Z,61.33
2017-03-12T02:08:51.996Z,61.33
2017-03-12T02:09:58.342Z,61.33
2017-03-12T02:10:58.615Z,61.32
2017-03-12T02:11:49.127Z,61.29
2017-03-12T02:12:58.314Z,61.13
2017-03-12T02:13:55.006Z,60.91
2017-03-12T02:15:00.014Z,60.92
2017-03-12T02:15:50.054Z,60.90
2017-03-12T02:16:58.112Z,60.93
2017-03-12T02:17:58.352Z,60.94
2017-03-12T02:18:54.538Z,60.94
2017-03-12T02:19:46.647Z,60.97
2017-03-12T02:20:49.009Z,60.98
2017-03-12T02:21:58.540Z,61.01
2017-03-12T02:23:04.500Z,61.01
2017-03-12T02:23:57.865Z,61.02
2017-03-12T02:25:18.619Z,61.02
2017-03-12T02:25:57.098Z,61.03
2017-03-12T02:26:55.767Z,61.03
2017-03-12T02:27:56.248Z,61.02
2017-03-12T02:28:59.382Z,61.01
2017-03-12T02:30:02.096Z,61.01
2017-03-12T02:30:53.565Z,61.01
2017-03-12T02:31:46.163Z,61.00
2017-03-12T02:32:54.202Z,61.01
2017-03-12T02:33:54.093Z,61.00
2017-03-12T02:34:59.161Z,60.03
2017-03-12T02:35:58.363Z,59.80
2017-03-12T02:36:59.832Z,59.68
2017-03-12T02:37:46.701Z,59.61
2017-03-12T02:38:56.190Z,59.57
2017-03-12T02:39:59.402Z,59.54
2017-03-12T02:40:46.126Z,59.52
2017-03-12T02:41:58.946Z,60.40
2017-03-12T02:42:37.304Z,60.32
2017-03-12T02:43:58.173Z,59.59
2017-03-12T02:44:53.670Z,60.11
2017-03-12T02:45:54.679Z,60.52
2017-03-12T02:46:45.367Z,60.57
2017-03-12T02:47:56.386Z,60.28
2017-03-12T02:48:59.410Z,59.96
2017-03-12T02:49:49.512Z,59.58
2017-03-12T02:50:50.666Z,61.83
2017-03-12T02:51:46.055Z,59.87
2017-03-12T02:52:50.956Z,59.76
2017-03-12T02:53:57.115Z,59.65
2017-03-12T02:54:53.543Z,59.71
2017-03-12T02:55:42.657Z,59.76
2017-03-12T02:56:43.943Z,59.83
2017-03-12T02:57:50.564Z,59.95
2017-03-12T02:59:01.142Z,59.83
2017-03-12T02:59:49.048Z,59.78
2017-03-12T03:00:54.467Z,59.77
2017-03-12T03:04:53.493Z,59.69
2017-03-12T03:06:02.664Z,59.74
2017-03-12T03:06:58.245Z,59.75
2017-03-12T03:07:40.055Z,59.71
2017-03-12T03:08:45.834Z,59.74
2017-03-12T03:09:45.325Z,59.75
2017-03-12T03:10:59.590Z,59.75
2017-03-12T03:11:53.583Z,59.70
2017-03-12T03:12:50.384Z,59.66
2017-03-12T03:13:53.269Z,59.66
2017-03-12T03:15:13.883Z,59.69
2017-03-12T03:16:24.080Z,59.65
2017-03-12T03:16:49.734Z,59.68
2017-03-12T03:17:39.612Z,59.71
2017-03-12T03:18:55.493Z,59.70
2017-03-12T03:19:59.126Z,59.69
2017-03-12T03:21:01.331Z,59.68
2017-03-12T03:23:40.712Z,59.54
2017-03-12T03:24:52.135Z,59.53
2017-03-12T03:27:06.146Z,59.57
2017-03-12T03:27:49.835Z,59.60
2017-03-12T03:28:50.938Z,59.60
2017-03-12T03:29:39.930Z,59.56
2017-03-12T03:30:59.245Z,59.55
2017-03-12T03:32:47.170Z,59.50
2017-03-12T03:32:58.240Z,59.52
2017-03-12T03:33:58.753Z,59.48
2017-03-12T03:34:46.766Z,59.29
2017-03-12T03:35:41.466Z,58.54
2017-03-12T03:36:34.849Z,58.33
2017-03-12T03:37:50.028Z,58.30
2017-03-12T03:38:53.040Z,58.13
2017-03-12T03:39:46.950Z,58.13
2017-03-12T03:40:44.332Z,58.11
2017-03-12T03:43:59.573Z,58.08
2017-03-12T03:44:20.356Z,58.29
2017-03-12T03:44:58.864Z,58.91
2017-03-12T03:45:46.577Z,59.08
2017-03-12T03:46:48.868Z,59.20
2017-03-12T03:48:52.437Z,59.28
2017-03-12T03:50:02.485Z,59.35
2017-03-12T03:50:46.685Z,59.37
2017-03-12T03:51:54.529Z,59.41
2017-03-12T03:52:45.769Z,59.40
2017-03-12T03:54:00.236Z,59.39
2017-03-12T03:54:49.762Z,59.43
2017-03-12T03:55:46.678Z,59.45
2017-03-12T03:56:55.090Z,59.44
2017-03-12T03:57:50.103Z,59.46
2017-03-12T03:58:50.993Z,59.49
2017-03-12T03:59:50.258Z,59.49
2017-03-12T04:00:46.199Z,59.53
2017-03-12T04:01:49.487Z,59.58
2017-03-12T04:02:44.451Z,59.54
2017-03-12T04:03:49.961Z,59.60
2017-03-12T04:04:45.164Z,59.59
2017-03-12T04:05:50.913Z,59.62
2017-03-12T04:06:55.595Z,59.68
2017-03-12T04:08:55.961Z,59.73
2017-03-12T04:09:50.535Z,59.76
2017-03-12T04:10:51.244Z,59.81
2017-03-12T04:11:55.322Z,59.81
2017-03-12T04:12:59.509Z,59.79
2017-03-12T04:13:56.340Z,59.83
2017-03-12T04:14:51.039Z,59.81
2017-03-12T04:15:44.706Z,59.77
2017-03-12T04:16:50.830Z,59.82
2017-03-12T04:17:46.297Z,59.86
2017-03-12T04:18:47.980Z,59.89
2017-03-12T04:19:45.117Z,59.87
2017-03-12T04:20:46.167Z,59.90
2017-03-12T04:21:54.914Z,59.90
2017-03-12T04:22:46.929Z,59.94
2017-03-12T04:23:47.879Z,59.98
2017-03-12T04:24:49.726Z,60.02
2017-03-12T04:25:54.441Z,60.07
2017-03-12T04:26:54.182Z,60.08
2017-03-12T04:27:45.971Z,60.08
2017-03-12T04:28:49.847Z,60.08
2017-03-12T04:29:47.061Z,60.11
2017-03-12T04:30:50.890Z,60.15
2017-03-12T04:31:59.550Z,60.18
2017-03-12T04:32:58.490Z,60.18
2017-03-12T04:33:41.001Z,60.18
2017-03-12T04:34:54.584Z,60.18
2017-03-12T04:35:56.395Z,60.21
2017-03-12T04:36:46.652Z,60.25
2017-03-12T04:37:55.546Z,60.28
2017-03-12T04:38:45.133Z,60.27
2017-03-12T04:39:48.841Z,60.29
2017-03-12T04:40:50.038Z,60.30
2017-03-12T04:41:59.258Z,60.32
2017-03-12T04:42:49.343Z,60.35
2017-03-12T04:43:50.705Z,60.38
2017-03-12T04:44:53.101Z,60.38
2017-03-12T04:45:50.883Z,60.36
2017-03-12T04:46:53.102Z,60.36
2017-03-12T04:47:48.915Z,60.39
2017-03-12T04:48:43.771Z,60.41
2017-03-12T04:49:59.236Z,60.42
2017-03-12T04:50:45.342Z,60.40
2017-03-12T04:51:55.635Z,60.43
2017-03-12T04:52:46.075Z,60.44
2017-03-12T04:53:55.846Z,60.47
2017-03-12T04:54:46.612Z,60.49
2017-03-12T04:55:55.839Z,60.48
2017-03-12T04:56:46.310Z,60.52
2017-03-12T04:57:54.869Z,60.54
2017-03-12T04:58:56.450Z,59.61
2017-03-12T05:00:06.905Z,59.30
2017-03-12T05:00:56.215Z,59.30
2017-03-12T05:01:50.909Z,59.25
2017-03-12T05:02:55.377Z,59.19
2017-03-12T05:03:55.365Z,59.24
2017-03-12T05:04:55.511Z,59.57
2017-03-12T05:05:46.467Z,60.14
2017-03-12T05:06:40.916Z,60.33
2017-03-12T05:07:50.899Z,60.44
2017-03-12T05:08:44.890Z,60.48
2017-03-12T05:09:48.636Z,60.52
2017-03-12T05:10:59.596Z,60.56
2017-03-12T05:11:56.027Z,60.07
2017-03-12T05:12:45.323Z,60.38
2017-03-12T05:13:55.566Z,60.51
2017-03-12T05:14:46.492Z,60.57
2017-03-12T05:15:45.247Z,60.61
2017-03-12T05:16:50.647Z,60.61
2017-03-12T05:17:50.855Z,60.66
2017-03-12T05:18:46.436Z,60.68
2017-03-12T05:19:55.669Z,60.67
2017-03-12T05:20:44.980Z,60.69
2017-03-12T05:21:50.560Z,60.72
2017-03-12T05:22:59.126Z,60.74
2017-03-12T05:23:54.046Z,60.74
2017-03-12T05:25:02.596Z,60.73
2017-03-12T05:25:47.188Z,60.79
2017-03-12T05:26:50.980Z,60.77
2017-03-12T05:27:55.097Z,60.78
2017-03-12T05:28:50.044Z,60.81
2017-03-12T05:29:59.719Z,60.84
2017-03-12T05:30:50.794Z,60.88
2017-03-12T05:31:59.107Z,60.90
2017-03-12T05:32:51.908Z,60.94
2017-03-12T05:33:54.922Z,60.96
2017-03-12T05:34:49.103Z,60.99
2017-03-12T05:35:46.179Z,61.01
2017-03-12T05:36:49.678Z,61.03
2017-03-12T05:37:55.471Z,61.04
2017-03-12T05:38:40.702Z,61.02
2017-03-12T05:39:46.544Z,61.07
2017-03-12T05:40:56.195Z,61.06
2017-03-12T05:41:59.001Z,61.06
2017-03-12T05:42:55.948Z,61.06
2017-03-12T05:43:44.008Z,61.04
2017-03-12T05:44:53.846Z,61.06
2017-03-12T05:45:44.937Z,61.05
2017-03-12T05:46:59.852Z,61.07
2017-03-12T05:47:55.219Z,61.06
2017-03-12T05:48:46.126Z,61.07
2017-03-12T05:49:45.916Z,61.06
2017-03-12T05:50:52.064Z,61.07
2017-03-12T05:51:51.090Z,61.07
2017-03-12T05:52:51.903Z,61.10
2017-03-12T05:53:47.880Z,61.10
2017-03-12T05:54:52.188Z,61.08
2017-03-12T05:55:49.275Z,61.09
2017-03-12T05:57:01.241Z,61.05
2017-03-12T05:57:49.075Z,61.06
2017-03-12T05:58:50.759Z,61.07
2017-03-12T05:59:47.332Z,61.12
2017-03-12T06:00:45.725Z,61.13
2017-03-12T06:01:57.362Z,61.21
2017-03-12T06:02:51.103Z,61.18
2017-03-12T06:03:59.095Z,61.19
2017-03-12T06:04:55.733Z,61.21
2017-03-12T06:05:49.473Z,61.21
2017-03-12T06:06:54.556Z,60.99
2017-03-12T06:07:55.487Z,60.56
2017-03-12T06:08:58.924Z,61.07
2017-03-12T06:09:49.239Z,61.13
2017-03-12T06:10:45.652Z,61.17
2017-03-12T06:11:56.095Z,61.17
2017-03-12T06:12:46.070Z,61.18
2017-03-12T06:13:55.428Z,61.18
2017-03-12T06:14:46.369Z,61.18
2017-03-12T06:15:59.440Z,61.17
2017-03-12T06:16:46.348Z,61.18
2017-03-12T06:17:38.509Z,61.18
2017-03-12T06:18:55.347Z,61.19
2017-03-12T06:19:40.821Z,61.22
2017-03-12T06:20:45.277Z,61.21
2017-03-12T06:21:47.319Z,61.22
2017-03-12T06:22:56.350Z,61.22
2017-03-12T06:23:50.027Z,61.21
2017-03-12T06:25:00.468Z,61.22
2017-03-12T06:25:50.294Z,61.22
2017-03-12T06:26:50.819Z,61.24
2017-03-12T06:28:14.707Z,61.25
2017-03-12T06:28:54.677Z,61.26
2017-03-12T06:29:59.318Z,61.28
2017-03-12T06:30:58.754Z,61.26
2017-03-12T06:31:55.241Z,61.26
2017-03-12T06:32:46.060Z,61.24
2017-03-12T06:33:50.156Z,61.26
2017-03-12T06:34:54.882Z,61.28
2017-03-12T06:35:47.037Z,61.28
2017-03-12T06:36:51.298Z,61.28
2017-03-12T06:37:46.177Z,61.30
2017-03-12T06:39:15.826Z,61.30
2017-03-12T06:39:58.925Z,61.30
2017-03-12T06:40:38.876Z,61.29
2017-03-12T06:41:54.449Z,61.30
2017-03-12T06:42:54.669Z,61.30
2017-03-12T06:43:55.426Z,61.29
2017-03-12T06:44:46.286Z,61.31
2017-03-12T06:45:50.593Z,61.30
2017-03-12T06:46:46.815Z,61.31
2017-03-12T06:47:50.036Z,61.30
2017-03-12T06:48:50.808Z,61.30
2017-03-12T06:49:48.028Z,61.32
2017-03-12T06:50:54.736Z,61.31
2017-03-12T06:51:49.539Z,61.32
2017-03-12T06:52:53.610Z,61.32
2017-03-12T06:53:48.435Z,61.32
2017-03-12T06:54:54.597Z,61.30
2017-03-12T06:55:45.953Z,61.32
2017-03-12T06:56:54.874Z,61.36
2017-03-12T06:57:46.430Z,61.42
2017-03-12T06:58:57.058Z,61.34
2017-03-12T06:59:52.240Z,61.33
2017-03-12T07:00:46.116Z,61.32
2017-03-12T07:01:53.625Z,61.36
2017-03-12T07:02:55.818Z,61.34
2017-03-12T07:03:51.236Z,61.37
2017-03-12T07:04:48.590Z,61.35
2017-03-12T07:05:59.439Z,61.34
2017-03-12T07:07:18.296Z,61.35
2017-03-12T07:07:57.275Z,61.37
2017-03-12T07:09:01.694Z,61.37
2017-03-12T07:09:47.088Z,61.38
2017-03-12T07:10:45.316Z,61.35
2017-03-12T07:11:45.857Z,61.38
2017-03-12T07:12:46.725Z,61.37
2017-03-12T07:13:56.427Z,61.36
2017-03-12T07:14:47.849Z,61.38
2017-03-12T07:15:50.550Z,61.23
2017-03-12T07:16:44.742Z,60.39
2017-03-12T07:17:56.441Z,60.21
2017-03-12T07:18:46.401Z,60.10
2017-03-12T07:19:55.834Z,60.02
2017-03-12T07:20:55.211Z,60.90
2017-03-12T07:21:55.976Z,61.11
2017-03-12T07:22:54.846Z,61.27
2017-03-12T07:23:46.284Z,61.31
2017-03-12T07:24:46.542Z,61.33
2017-03-12T07:25:51.421Z,61.35
2017-03-12T07:26:54.431Z,61.38
2017-03-12T07:27:51.190Z,61.38
2017-03-12T07:28:54.902Z,61.40
2017-03-12T07:29:51.311Z,61.38
2017-03-12T07:30:45.898Z,61.39
2017-03-12T07:31:59.821Z,61.41
2017-03-12T07:32:47.089Z,61.40
2017-03-12T07:33:50.427Z,61.39
2017-03-12T07:34:51.429Z,61.39
2017-03-12T07:35:46.323Z,61.40
2017-03-12T07:36:56.500Z,61.40
2017-03-12T07:37:57.408Z,60.46
2017-03-12T07:38:45.249Z,60.49
2017-03-12T07:39:55.607Z,61.13
2017-03-12T07:40:50.815Z,61.27
2017-03-12T07:41:45.616Z,61.38
2017-03-12T07:42:55.505Z,61.36
2017-03-12T07:43:46.479Z,60.49
2017-03-12T07:44:51.298Z,60.41
2017-03-12T07:46:00.805Z,61.23
2017-03-12T07:46:59.131Z,61.36
2017-03-12T07:47:50.739Z,61.44
2017-03-12T07:48:50.015Z,61.38
2017-03-12T07:49:54.835Z,60.61
2017-03-12T07:50:50.147Z,60.41
2017-03-12T07:51:54.726Z,60.33
2017-03-12T07:52:49.102Z,60.26
2017-03-12T07:53:50.825Z,60.22
2017-03-12T07:54:50.739Z,60.22
2017-03-12T07:55:51.316Z,60.21
2017-03-12T07:56:50.847Z,60.20
2017-03-12T07:57:46.241Z,60.22
2017-03-12T07:58:35.490Z,60.33
2017-03-12T07:59:40.665Z,60.21
2017-03-12T08:00:48.812Z,60.51
2017-03-12T08:01:44.851Z,61.17
2017-03-12T08:02:39.951Z,61.38
2017-03-12T08:03:48.597Z,61.47
2017-03-12T08:04:41.022Z,61.57
2017-03-12T08:05:45.233Z,61.60
2017-03-12T08:06:56.323Z,61.62
2017-03-12T08:07:56.438Z,61.66
2017-03-12T08:08:50.841Z,61.66
2017-03-12T08:09:51.952Z,61.67
2017-03-12T08:10:54.898Z,61.69
2017-03-12T08:11:50.173Z,61.72
2017-03-12T08:12:48.740Z,61.71
2017-03-12T08:13:50.608Z,61.73
2017-03-12T08:14:54.948Z,61.71
2017-03-12T08:15:50.445Z,61.72
2017-03-12T08:16:49.755Z,61.70
2017-03-12T08:18:00.116Z,61.72
2017-03-12T08:18:47.378Z,61.70
2017-03-12T08:19:50.871Z,61.73
2017-03-12T08:20:41.557Z,61.74
2017-03-12T08:21:46.658Z,61.73
2017-03-12T08:22:55.094Z,61.75
2017-03-12T08:23:54.081Z,61.75
2017-03-12T08:24:48.741Z,61.74
2017-03-12T08:25:48.867Z,61.73
2017-03-12T08:26:44.860Z,61.74
2017-03-12T08:27:44.687Z,61.72
2017-03-12T08:28:51.394Z,61.76
2017-03-12T08:29:45.675Z,61.75
2017-03-12T08:30:49.732Z,61.62
2017-03-12T08:31:50.749Z,60.73
2017-03-12T08:32:51.770Z,60.54
2017-03-12T08:34:02.821Z,60.46
2017-03-12T08:34:44.902Z,60.37
2017-03-12T08:35:50.224Z,60.45
2017-03-12T08:36:48.664Z,61.27
2017-03-12T08:37:53.308Z,61.43
2017-03-12T08:38:50.620Z,61.54
2017-03-12T08:39:56.915Z,61.59
2017-03-12T08:40:46.089Z,61.64
2017-03-12T08:41:50.456Z,61.64
2017-03-12T08:42:54.375Z,61.65
2017-03-12T08:43:40.228Z,61.67
2017-03-12T08:44:49.890Z,61.68
2017-03-12T08:45:39.446Z,61.69
2017-03-12T08:46:44.528Z,61.69
2017-03-12T08:47:43.927Z,61.69
2017-03-12T08:48:42.060Z,61.69
2017-03-12T08:49:51.152Z,61.69
2017-03-12T08:50:49.888Z,61.72
2017-03-12T08:51:50.420Z,61.72
2017-03-12T08:52:53.716Z,61.72
2017-03-12T08:53:39.430Z,61.70
2017-03-12T08:54:55.389Z,61.71
2017-03-12T08:55:46.049Z,61.70
2017-03-12T08:56:44.763Z,61.71
2017-03-12T08:57:49.644Z,61.70
2017-03-12T08:58:58.717Z,61.69
2017-03-12T08:59:50.349Z,61.68
2017-03-12T09:00:45.455Z,61.67
2017-03-12T09:01:51.724Z,61.70
2017-03-12T09:02:40.129Z,61.73
2017-03-12T09:03:59.676Z,61.75
2017-03-12T09:04:55.826Z,61.78
2017-03-12T09:05:44.327Z,61.77
2017-03-12T09:06:46.240Z,61.79
2017-03-12T09:07:44.697Z,61.80
2017-03-12T09:08:37.849Z,61.83
2017-03-12T09:09:30.639Z,61.82
2017-03-12T09:10:42.060Z,61.81
2017-03-12T09:11:43.819Z,61.83
2017-03-12T09:12:44.960Z,61.82
2017-03-12T09:13:54.131Z,61.85
2017-03-12T09:14:49.080Z,61.89
2017-03-12T09:15:44.269Z,61.96
2017-03-12T09:16:54.989Z,61.98
2017-03-12T09:17:26.965Z,61.99
2017-03-12T09:18:36.132Z,62.07
2017-03-12T09:19:43.161Z,62.06
2017-03-12T09:20:44.058Z,62.09
2017-03-12T09:21:36.725Z,62.08
2017-03-12T09:22:39.570Z,62.06
2017-03-12T09:23:44.427Z,62.11
2017-03-12T09:24:49.694Z,62.11
2017-03-12T09:25:51.562Z,62.15
2017-03-12T09:26:45.824Z,62.20
2017-03-12T09:27:50.674Z,62.19
2017-03-12T09:28:43.757Z,62.20
2017-03-12T09:29:44.384Z,62.38
2017-03-12T09:30:38.848Z,62.35
2017-03-12T09:31:42.583Z,62.35
2017-03-12T09:32:37.835Z,62.32
2017-03-12T09:33:36.814Z,62.29
2017-03-12T09:34:39.511Z,62.30
2017-03-12T09:35:57.401Z,62.28
2017-03-12T09:36:49.695Z,62.28
2017-03-12T09:37:56.077Z,62.24
2017-03-12T09:38:50.516Z,62.21
2017-03-12T09:39:57.176Z,62.20
2017-03-12T09:40:49.214Z,62.17
2017-03-12T09:41:44.699Z,62.14
2017-03-12T09:42:51.300Z,62.14
2017-03-12T09:43:49.554Z,62.16
2017-03-12T09:44:44.666Z,62.15
2017-03-12T09:45:43.759Z,62.13
2017-03-12T09:46:50.915Z,62.11
2017-03-12T09:47:47.912Z,62.10
2017-03-12T09:48:59.358Z,62.09
2017-03-12T09:49:42.877Z,62.09
2017-03-12T09:50:45.420Z,62.09
2017-03-12T09:51:45.656Z,62.09
2017-03-12T09:52:59.470Z,62.09
2017-03-12T09:53:55.995Z,62.10
2017-03-12T09:54:43.557Z,62.10
2017-03-12T09:55:55.333Z,62.09
2017-03-12T09:56:53.216Z,62.09
2017-03-12T09:57:49.667Z,62.07
2017-03-12T09:58:53.314Z,62.08
2017-03-12T09:59:48.838Z,62.09
2017-03-12T10:00:47.258Z,62.11
2017-03-12T10:01:45.608Z,62.12
2017-03-12T10:02:46.461Z,62.16
2017-03-12T10:03:51.654Z,62.16
2017-03-12T10:04:58.099Z,62.18
2017-03-12T10:05:46.312Z,62.19
2017-03-12T10:06:47.609Z,62.28
2017-03-12T10:07:48.234Z,62.26
2017-03-12T10:08:44.145Z,62.28
2017-03-12T10:09:44.695Z,62.28
2017-03-12T10:10:46.196Z,62.27
2017-03-12T10:11:54.550Z,62.40
2017-03-12T10:12:51.520Z,62.34
2017-03-12T10:13:46.324Z,62.37
2017-03-12T10:14:45.686Z,62.35
2017-03-12T10:15:45.276Z,62.35
2017-03-12T10:16:39.248Z,62.36
2017-03-12T10:17:50.237Z,62.35
2017-03-12T10:19:00.044Z,62.36
2017-03-12T10:19:48.263Z,62.36
2017-03-12T10:21:03.564Z,61.42
2017-03-12T10:21:43.002Z,61.58
2017-03-12T10:23:06.323Z,62.13
2017-03-12T10:23:50.578Z,62.22
2017-03-12T10:24:50.701Z,62.32
2017-03-12T10:25:50.686Z,62.36
2017-03-12T10:26:40.917Z,62.40
2017-03-12T10:27:58.944Z,62.38
2017-03-12T10:28:45.362Z,62.34
2017-03-12T10:29:48.283Z,62.33
2017-03-12T10:30:48.765Z,62.37
2017-03-12T10:31:49.149Z,62.38
2017-03-12T10:32:50.362Z,62.40
2017-03-12T10:33:45.683Z,62.41
2017-03-12T10:34:46.598Z,62.38
2017-03-12T10:35:51.451Z,62.39
2017-03-12T10:36:51.049Z,62.40
2017-03-12T10:37:45.635Z,62.35
2017-03-12T10:38:40.374Z,62.33
2017-03-12T10:39:48.874Z,62.36
2017-03-12T10:40:44.627Z,62.34
2017-03-12T10:41:50.129Z,62.35
2017-03-12T10:42:45.059Z,62.32
2017-03-12T10:44:00.008Z,62.34
2017-03-12T10:44:49.644Z,62.34
2017-03-12T10:45:47.067Z,62.34
2017-03-12T10:46:51.263Z,62.37
2017-03-12T10:47:46.573Z,62.36
2017-03-12T10:48:40.979Z,62.41
2017-03-12T10:49:45.069Z,62.41
2017-03-12T10:50:50.129Z,62.42
2017-03-12T10:51:49.727Z,62.40
2017-03-12T10:52:46.731Z,61.48
2017-03-12T10:53:54.558Z,61.23
2017-03-12T10:54:45.630Z,61.14
2017-03-12T10:55:47.497Z,61.98
2017-03-12T10:56:51.290Z,62.15
2017-03-12T10:57:50.507Z,62.22
2017-03-12T10:58:50.166Z,62.29
2017-03-12T10:59:55.276Z,62.30
2017-03-12T11:00:46.089Z,62.38
2017-03-12T11:01:56.073Z,62.38
2017-03-12T11:02:51.470Z,62.47
2017-03-12T11:03:48.817Z,62.43
2017-03-12T11:04:44.656Z,62.42
2017-03-12T11:05:45.281Z,62.39
2017-03-12T11:06:51.190Z,62.37
2017-03-12T11:07:58.137Z,62.35
2017-03-12T11:08:47.390Z,62.38
2017-03-12T11:09:51.246Z,62.35
2017-03-12T11:10:59.650Z,62.32
2017-03-12T11:11:50.582Z,62.31
2017-03-12T11:12:50.946Z,62.33
2017-03-12T11:13:59.133Z,62.34
2017-03-12T11:14:59.881Z,61.34
2017-03-12T11:15:49.793Z,61.22
2017-03-12T11:16:51.531Z,62.00
2017-03-12T11:17:45.224Z,62.14
2017-03-12T11:18:45.975Z,62.20
2017-03-12T11:19:54.810Z,62.24
2017-03-12T11:20:56.286Z,62.24
2017-03-12T11:21:55.664Z,62.30
2017-03-12T11:22:51.661Z,62.28
2017-03-12T11:23:46.304Z,61.34
2017-03-12T11:24:46.179Z,61.13
2017-03-12T11:25:56.394Z,61.01
2017-03-12T11:26:44.341Z,61.01
2017-03-12T11:28:06.121Z,60.91
2017-03-12T11:28:50.806Z,61.84
2017-03-12T11:29:57.121Z,62.08
2017-03-12T11:30:45.158Z,62.23
2017-03-12T11:31:45.276Z,62.30
2017-03-12T11:32:53.010Z,62.32
2017-03-12T11:33:45.129Z,62.35
2017-03-12T11:34:45.069Z,62.37
2017-03-12T11:35:48.830Z,62.37
2017-03-12T11:36:49.926Z,62.42
2017-03-12T11:37:42.111Z,62.48
2017-03-12T11:38:43.765Z,62.46
2017-03-12T11:39:45.330Z,62.46
2017-03-12T11:40:51.212Z,62.45
2017-03-12T11:41:41.328Z,62.51
2017-03-12T11:42:59.478Z,62.48
2017-03-12T11:43:54.019Z,62.46
2017-03-12T11:44:50.171Z,62.50
2017-03-12T11:45:50.367Z,62.43
2017-03-12T11:46:40.380Z,62.31
2017-03-12T11:47:49.256Z,62.04
2017-03-12T11:48:49.248Z,61.86
2017-03-12T11:49:50.863Z,61.70
2017-03-12T11:50:44.345Z,61.62
2017-03-12T11:51:42.892Z,61.37
2017-03-12T11:52:45.536Z,61.26
2017-03-12T11:53:45.346Z,61.13
2017-03-12T11:54:46.169Z,60.92
2017-03-12T11:55:54.197Z,60.82
2017-03-12T11:56:50.224Z,60.76
2017-03-12T11:57:50.132Z,60.70
2017-03-12T11:58:49.214Z,60.59
2017-03-12T11:59:50.397Z,60.60
2017-03-12T12:00:52.557Z,60.51
2017-03-12T12:01:49.293Z,60.47
2017-03-12T12:02:49.877Z,60.35
2017-03-12T12:03:54.615Z,60.37
2017-03-12T12:04:49.760Z,60.28
2017-03-12T12:05:28.659Z,60.25
2017-03-12T12:06:23.414Z,60.16
2017-03-12T12:07:22.787Z,60.10
2017-03-12T12:08:24.275Z,60.12
2017-03-12T12:09:21.441Z,60.12
2017-03-12T12:10:23.260Z,60.11
2017-03-12T12:11:23.915Z,60.04
2017-03-12T12:12:24.548Z,60.03
2017-03-12T12:13:27.259Z,59.80
2017-03-12T12:14:23.011Z,59.01
2017-03-12T12:15:22.122Z,57.98
2017-03-12T12:16:38.361Z,57.72
2017-03-12T12:17:27.103Z,57.27
2017-03-12T12:18:37.624Z,56.58
2017-03-12T12:20:26.968Z,54.36
2017-03-12T12:21:21.874Z,53.85
2017-03-12T12:22:37.784Z,52.97
2017-03-12T12:23:30.768Z,52.72
2017-03-12T12:24:29.365Z,52.15
2017-03-12T12:25:44.796Z,51.59
2017-03-12T12:26:45.237Z,51.55
2017-03-12T12:27:47.198Z,51.20
2017-03-12T12:28:49.365Z,51.10
2017-03-12T12:29:40.834Z,50.59
2017-03-12T12:30:39.422Z,50.58
2017-03-12T12:31:39.392Z,50.73
2017-03-12T12:32:22.760Z,50.40
2017-03-12T12:33:28.719Z,50.11
2017-03-12T12:34:35.424Z,50.17
2017-03-12T12:35:45.915Z,49.83
2017-03-12T12:36:45.430Z,49.99
2017-03-12T12:37:40.235Z,49.12
2017-03-12T12:38:39.944Z,48.93
2017-03-12T12:39:37.617Z,48.68
2017-03-12T12:40:49.678Z,48.19
2017-03-12T12:42:00.221Z,47.88
2017-03-12T12:42:44.908Z,47.34
2017-03-12T12:43:40.784Z,47.24
2017-03-12T12:44:43.090Z,47.47
2017-03-12T12:45:31.222Z,46.93
2017-03-12T12:46:38.181Z,47.22
2017-03-12T12:47:43.185Z,47.42
2017-03-12T12:48:43.169Z,47.80
2017-03-12T12:49:41.396Z,48.10
2017-03-12T12:50:44.137Z,48.20
2017-03-12T12:51:34.101Z,48.62
2017-03-12T12:52:22.961Z,48.89
2017-03-12T12:53:50.399Z,49.02
2017-03-12T12:54:29.616Z,48.33
2017-03-12T12:55:47.038Z,48.38
2017-03-12T12:56:24.995Z,48.42
2017-03-12T12:57:18.625Z,48.41
2017-03-12T12:58:22.029Z,48.42
2017-03-12T12:59:23.043Z,48.62
2017-03-12T13:00:22.994Z,48.83
2017-03-12T13:01:28.962Z,49.61
2017-03-12T13:02:50.500Z,49.96